カラカス の空港の天気 - METARとTAF

シモン・ボリバー空港(バルガス) ( SVMI / CCS ) - ベネズエラ バルガス州、Maiquetia (カラカス近郊)
飛行場実況気象(Metar)
観測時間10/19 14:00 VET (10/19 18:00 UTC)
風向・風速北西 2m/s
視程8000m
天気現象
全天を覆う雲 雲底高度 400m
気温24℃
湿度89%
気圧1012hPa
METARSVMI 191800Z 31004KT 8000 OVC013 24/22 Q1012
過去の天気等 Google飛行場航空写真 Wunderground天気予報

過去48時間のMETAR

飛行場予報(TAF)
発表時間: 10/19 12:00 VET (10/19 16:00 UTC)
予報対象時間: 19日14時 VET ~ 20日14時 VET
風向・風速東北東 3m/s
視程10km以上
全天の4割程度の雲 雲底高度 490m
19日14時 VET ~ 19日18時 VET に徐々に
風向・風速東 4m/s
視程9000m
天気現象周辺で霧雨
少しの雲 雲底高度 490m
全天の4割程度の雲 雲底高度 3050m
TAF SVMI 191600Z 1918/2018 07005KT 9999 SCT016 TX33/18Z TN24/10Z
BECMG 1918/1922 09008KT 9000 VCDZ FEW016 SCT100